Hovedside
METAR-TAF:

METAR-TAF

Lufthavner :

Gällivare, Sverige

Gällivare lufthavn

breddegrad: 67-09N, lengdegrad: 020-39E, høyde over havet: 359 m

Gjeldene værobservasjon

Denne rapporten ble laget for 38 minutter siden, klokken 20:20 UTC
Vind 21 kt fra Vest-nordvest med vindkast opp mot 33 kt
Temperatur 0°C
Luftfuktighet 55%
Trykk 1001 hPa
Sikt 10 km eller mer
ingen skyer under 1500 m og ingen bygeskyer

METAR: ESNG 262020Z 30021G33KT CAVOK 00/M08 Q1001

Tid: 22:58 (20:58 UTC)

Varsel

Denne rapporten ble laget for 3 timer og 28 minutter siden, klokken 17:30 UTC
Varsel gyldig fra 26. klokken 18 UTC til 26. klokken 22 UTC
Vind 22 kt fra Vest-nordvest med vindkast opp mot 35 kt
Sikt 10 km eller mer
ingen skyer under 1500 m og ingen bygeskyer

TAF: ESNG 261730Z 2618/2622 29022G35KT CAVOK

Værobservasjoner og værvarsel for over 4000 flyplasser (METAR- og TAF-rapporter).

Tilgjengelige stasjoner er representert av de røde og gule prikkene på kartet.

Hold musepekeren over prikken for å se navnet på stasjonen.

Klikk så for å se værobservasjoner og -varsler.

For å forandre kartet kan du klikke på den grønne knappen med svart kryss for å zoome inn, på den grønne knappen med strek for å zoome ut, eller på de grønne pilene for å se tilstøtende kart.


METAR-TAF: